KPNE/PNE METAR and TAF weather

Enter ICAO airport designator
Station Type Date Time Source
KPNE METAR 2019/12/14 19:39 UTC NOAA

KPNE 141939Z 23012G20KT 2SM BR BKN006 OVC014 14/12 A2923 RMK AO2 RAB10E35 P0003 T01390122


Station Type Date Time Source
KPNE Decoded METAR 2019/12/14 19:39 UTC NOAA

N.E. PHILADELPHIA AIRPORT, PA, United States (KPNE) 40-05N 075-01W 28M
Dec 14, 2019 - 02:39 PM EST / 2019.12.14 1939 UTC
Wind: from the SW (230 degrees) at 14 MPH (12 KT) gusting to 23 MPH (20 KT):0
Visibility: 2 mile(s):0
Sky conditions: overcast
Weather: mist
Precipitation last hour: 0.03 inches
Temperature: 57.0 F (13.9 C)
Dew Point: 54.0 F (12.2 C)
Relative Humidity: 89%
Pressure (altimeter): 29.23 in. Hg (989 hPa)
ob: KPNE 141939Z 23012G20KT 2SM BR BKN006 OVC014 14/12 A2923 RMK AO2 RAB10E35 P0003 T01390122
cycle: 19

Station Type Date Time Source
KPNE TAF 2019/12/14 18:36 UTC NOAA

TAF KPNE 141732Z 1418/1518 14007KT 2SM -SHRA BR OVC003
TEMPO 1418/1419 3/4SM BR
FM142100 23010G18KT 6SM BR BKN025
TEMPO 1421/1422 BKN015
FM150100 26014G30KT P6SM BKN080
FM150900 26013G28KT P6SM SCT250

Example: see airport list